createdAt,value
2023-02-17T00:04:22.536Z,8.42
2023-02-17T00:09:28.136Z,8.43
2023-02-17T00:14:33.698Z,8.44
2023-02-17T00:19:39.264Z,8.49
2023-02-17T00:24:44.873Z,8.40
2023-02-17T00:29:50.300Z,8.42
2023-02-17T00:34:57.639Z,8.45
2023-02-17T00:40:03.385Z,8.44
2023-02-17T00:45:11.071Z,8.50
2023-02-17T00:50:16.548Z,8.47
2023-02-17T00:55:22.068Z,8.46
2023-02-17T01:00:27.698Z,8.44
2023-02-17T01:05:33.349Z,8.45
2023-02-17T01:10:39.882Z,8.39
2023-02-17T01:15:49.162Z,8.35
2023-02-17T01:20:54.772Z,8.37
2023-02-17T01:26:00.247Z,8.46
2023-02-17T01:31:10.850Z,8.43
2023-02-17T01:36:18.989Z,8.46
2023-02-17T01:41:28.032Z,8.48
2023-02-17T01:46:37.653Z,8.53
2023-02-17T01:51:44.496Z,8.57
2023-02-17T01:56:52.258Z,8.55
2023-02-17T02:02:00.861Z,8.52
2023-02-17T02:07:09.668Z,8.45
2023-02-17T02:12:23.902Z,8.40
2023-02-17T02:17:59.233Z,8.42
2023-02-17T02:23:19.809Z,8.46
2023-02-17T02:28:31.313Z,8.37
2023-02-17T02:33:54.986Z,8.27
2023-02-17T02:39:06.576Z,8.26
2023-02-17T02:44:15.153Z,8.23
2023-02-17T02:49:20.810Z,8.25
2023-02-17T02:54:49.973Z,8.20
2023-02-17T03:00:19.206Z,8.22
2023-02-17T03:05:34.165Z,8.21
2023-02-17T03:10:48.350Z,8.14
2023-02-17T03:15:54.281Z,8.05
2023-02-17T03:21:05.630Z,8.14
2023-02-17T03:26:11.201Z,8.13
2023-02-17T03:31:17.489Z,8.11
2023-02-17T03:36:23.114Z,8.25
2023-02-17T03:41:29.127Z,8.22
2023-02-17T03:46:34.935Z,8.23
2023-02-17T03:51:41.061Z,8.29
2023-02-17T03:56:46.688Z,8.28
2023-02-17T04:01:52.173Z,8.22
2023-02-17T04:06:57.689Z,8.19
2023-02-17T04:12:03.086Z,8.25
2023-02-17T04:17:08.941Z,8.25
2023-02-17T04:22:14.440Z,8.26
2023-02-17T04:27:19.974Z,8.25
2023-02-17T04:32:25.773Z,8.21
2023-02-17T04:37:31.185Z,8.26
2023-02-17T04:42:37.041Z,8.27
2023-02-17T04:47:42.975Z,8.25
2023-02-17T04:52:48.508Z,8.11
2023-02-17T04:57:53.993Z,8.17
2023-02-17T05:02:59.694Z,8.18
2023-02-17T05:08:05.532Z,8.24
2023-02-17T05:13:11.064Z,8.25
2023-02-17T05:18:16.821Z,8.31
2023-02-17T05:23:22.340Z,8.27
2023-02-17T05:28:27.762Z,8.28
2023-02-17T05:33:33.360Z,8.36
2023-02-17T05:38:40.802Z,8.46
2023-02-17T05:43:47.224Z,8.45
2023-02-17T05:48:52.683Z,8.46
2023-02-17T05:53:58.689Z,8.44
2023-02-17T05:59:04.329Z,8.43
2023-02-17T06:04:09.819Z,8.51
2023-02-17T06:09:16.462Z,8.67
2023-02-17T06:14:21.916Z,9.29
2023-02-17T06:19:27.858Z,9.45
2023-02-17T06:24:33.494Z,9.61
2023-02-17T06:29:39.005Z,9.68
2023-02-17T06:34:44.795Z,9.66
2023-02-17T06:39:50.269Z,9.18
2023-02-17T06:44:55.813Z,8.92
2023-02-17T06:50:01.402Z,8.85
2023-02-17T06:55:07.439Z,8.90
2023-02-17T07:00:13.858Z,8.82
2023-02-17T07:05:19.468Z,8.75
2023-02-17T07:10:25.071Z,8.76
2023-02-17T07:15:30.527Z,8.73
2023-02-17T07:20:38.196Z,8.83
2023-02-17T07:25:45.179Z,8.86
2023-02-17T07:30:50.615Z,8.91
2023-02-17T07:35:56.359Z,8.86
2023-02-17T07:41:11.341Z,8.88
2023-02-17T07:46:17.347Z,8.94
2023-02-17T07:51:24.044Z,8.98
2023-02-17T07:56:30.185Z,9.03
2023-02-17T08:01:35.833Z,9.03
2023-02-17T08:06:41.317Z,9.12
2023-02-17T08:12:04.642Z,9.13
2023-02-17T08:17:10.141Z,9.19
2023-02-17T08:22:15.889Z,9.20
2023-02-17T08:27:21.758Z,9.18
2023-02-17T08:32:27.451Z,9.26
2023-02-17T08:37:33.256Z,9.32
2023-02-17T08:42:39.130Z,9.31
2023-02-17T08:47:45.145Z,9.41
2023-02-17T08:52:50.659Z,9.48
2023-02-17T08:57:56.288Z,9.48
2023-02-17T09:03:01.766Z,9.53
2023-02-17T09:08:07.380Z,9.58
2023-02-17T09:13:13.176Z,9.67
2023-02-17T09:18:18.775Z,9.71
2023-02-17T09:23:24.225Z,9.74
2023-02-17T09:28:29.764Z,9.73
2023-02-17T09:33:35.235Z,9.86
2023-02-17T09:38:42.113Z,9.89
2023-02-17T09:43:48.622Z,9.96
2023-02-17T09:48:57.380Z,9.84
2023-02-17T09:54:05.931Z,9.96
2023-02-17T09:59:14.661Z,10.04
2023-02-17T10:04:25.887Z,10.07
2023-02-17T10:09:37.419Z,10.04
2023-02-17T10:15:01.463Z,9.96
2023-02-17T10:20:10.090Z,10.04
2023-02-17T10:25:21.482Z,10.04
2023-02-17T10:30:41.803Z,10.02
2023-02-17T10:35:58.808Z,10.02
2023-02-17T10:41:06.886Z,10.01
2023-02-17T10:46:15.547Z,10.05
2023-02-17T10:51:24.125Z,10.03
2023-02-17T10:56:32.845Z,10.08
2023-02-17T11:01:38.531Z,10.07
2023-02-17T11:06:52.613Z,10.06
2023-02-17T11:12:10.299Z,10.07
2023-02-17T11:17:31.025Z,10.12
2023-02-17T11:22:41.517Z,10.08
2023-02-17T11:27:55.843Z,10.12
2023-02-17T11:33:02.828Z,10.24
2023-02-17T11:38:20.354Z,10.12
2023-02-17T11:43:28.574Z,10.25
2023-02-17T11:48:55.382Z,10.19
2023-02-17T11:54:12.967Z,10.23
2023-02-17T11:59:39.144Z,10.23
2023-02-17T12:04:47.639Z,10.19
2023-02-17T12:10:08.432Z,10.25
2023-02-17T12:15:28.988Z,10.23
2023-02-17T12:20:59.991Z,10.32
2023-02-17T12:26:08.686Z,10.29
2023-02-17T12:31:23.146Z,10.30
2023-02-17T12:36:34.509Z,10.32
2023-02-17T12:41:45.876Z,10.32
2023-02-17T12:46:57.638Z,10.40
2023-02-17T12:52:21.134Z,10.41
2023-02-17T12:57:32.992Z,10.49
2023-02-17T13:02:38.658Z,10.57
2023-02-17T13:08:02.040Z,10.57
2023-02-17T13:13:16.739Z,10.64
2023-02-17T13:18:30.708Z,10.68
2023-02-17T13:23:39.908Z,10.68
2023-02-17T13:28:46.723Z,10.72
2023-02-17T13:33:58.430Z,10.78
2023-02-17T13:39:23.938Z,10.88
2023-02-17T13:44:35.590Z,10.95
2023-02-17T13:49:41.116Z,10.95
2023-02-17T13:54:54.725Z,10.94
2023-02-17T14:00:12.107Z,11.05
2023-02-17T14:05:31.839Z,11.10
2023-02-17T14:10:38.154Z,11.15
2023-02-17T14:15:55.755Z,11.17
2023-02-17T14:21:07.887Z,11.22
2023-02-17T14:26:31.417Z,11.27
2023-02-17T14:31:49.146Z,11.32
2023-02-17T14:36:54.906Z,11.38
2023-02-17T14:42:00.300Z,11.41
2023-02-17T14:47:05.944Z,11.47
2023-02-17T14:52:23.491Z,11.50
2023-02-17T14:57:29.615Z,11.52
2023-02-17T15:02:35.767Z,11.57
2023-02-17T15:07:42.322Z,11.62
2023-02-17T15:12:48.125Z,11.66
2023-02-17T15:17:53.534Z,11.64
2023-02-17T15:22:59.448Z,11.68
2023-02-17T15:28:04.987Z,11.67
2023-02-17T15:33:12.872Z,11.66
2023-02-17T15:38:18.340Z,11.67
2023-02-17T15:43:24.948Z,11.67
2023-02-17T15:48:31.959Z,11.73
2023-02-17T15:53:37.334Z,11.70
2023-02-17T15:58:43.328Z,11.76
2023-02-17T16:03:49.064Z,11.78
2023-02-17T16:08:55.867Z,11.79
2023-02-17T16:14:03.826Z,11.80
2023-02-17T16:19:12.357Z,11.82
2023-02-17T16:24:17.867Z,11.78
2023-02-17T16:29:24.400Z,11.73
2023-02-17T16:34:31.712Z,11.77
2023-02-17T16:39:38.789Z,11.75
2023-02-17T16:44:44.512Z,11.73
2023-02-17T16:49:50.567Z,11.74
2023-02-17T16:54:56.103Z,11.66
2023-02-17T17:00:01.709Z,11.63
2023-02-17T17:05:07.838Z,11.58
2023-02-17T17:10:17.258Z,11.43
2023-02-17T17:15:23.897Z,11.29
2023-02-17T17:20:32.351Z,11.19
2023-02-17T17:25:40.609Z,11.11
2023-02-17T17:30:46.576Z,11.01
2023-02-17T17:35:53.806Z,11.04
2023-02-17T17:40:59.723Z,11.05
2023-02-17T17:46:08.684Z,11.01
2023-02-17T17:51:17.026Z,10.95
2023-02-17T17:56:28.619Z,10.91
2023-02-17T18:01:34.951Z,10.87
2023-02-17T18:06:43.422Z,10.76
2023-02-17T18:11:51.446Z,10.69
2023-02-17T18:16:58.243Z,10.69
2023-02-17T18:22:03.787Z,10.36
2023-02-17T18:27:09.355Z,10.20
2023-02-17T18:32:15.036Z,10.11
2023-02-17T18:37:20.581Z,10.05
2023-02-17T18:42:26.555Z,9.95
2023-02-17T18:47:32.168Z,9.90
2023-02-17T18:52:39.804Z,9.89
2023-02-17T18:57:45.515Z,9.82
2023-02-17T19:02:51.125Z,9.87
2023-02-17T19:07:57.207Z,9.78
2023-02-17T19:13:02.810Z,9.71
2023-02-17T19:18:08.403Z,9.68
2023-02-17T19:23:13.842Z,9.57
2023-02-17T19:28:19.562Z,9.47
2023-02-17T19:33:25.746Z,9.46
2023-02-17T19:38:31.533Z,9.34
2023-02-17T19:43:37.238Z,9.22
2023-02-17T19:48:43.226Z,9.18
2023-02-17T19:53:48.975Z,9.14
2023-02-17T19:58:55.300Z,9.15
2023-02-17T20:04:04.842Z,9.15
2023-02-17T20:09:19.112Z,9.16
2023-02-17T20:14:25.877Z,9.20
2023-02-17T20:19:31.521Z,9.14
2023-02-17T20:24:40.260Z,9.08
2023-02-17T20:29:46.275Z,9.06
2023-02-17T20:34:52.773Z,9.10
2023-02-17T20:39:58.385Z,9.10
2023-02-17T20:45:04.293Z,9.09
2023-02-17T20:50:11.807Z,9.09
2023-02-17T20:55:17.906Z,9.10
2023-02-17T21:00:26.438Z,9.07
2023-02-17T21:05:32.358Z,9.02
2023-02-17T21:10:39.615Z,9.01
2023-02-17T21:15:45.173Z,8.97
2023-02-17T21:20:50.880Z,8.96
2023-02-17T21:25:56.466Z,8.94
2023-02-17T21:31:03.876Z,8.95
2023-02-17T21:36:11.400Z,8.91
2023-02-17T21:41:19.946Z,8.95
2023-02-17T21:46:26.251Z,8.89
2023-02-17T21:51:32.083Z,8.85
2023-02-17T21:56:37.822Z,8.85
2023-02-17T22:01:43.404Z,8.85
2023-02-17T22:06:51.156Z,8.93
2023-02-17T22:11:56.611Z,8.89
2023-02-17T22:17:03.541Z,8.82
2023-02-17T22:22:08.996Z,8.85
2023-02-17T22:27:14.687Z,8.85
2023-02-17T22:32:20.241Z,8.84
2023-02-17T22:37:25.691Z,8.82
2023-02-17T22:42:31.216Z,8.81
2023-02-17T22:47:36.672Z,8.80
2023-02-17T22:52:42.263Z,8.73
2023-02-17T22:57:47.961Z,8.71
2023-02-17T23:02:58.532Z,8.65
2023-02-17T23:08:04.114Z,8.62
2023-02-17T23:13:10.052Z,8.56
2023-02-17T23:18:20.948Z,8.82
2023-02-17T23:23:27.082Z,8.61
2023-02-17T23:28:32.998Z,8.47
2023-02-17T23:33:38.737Z,8.35
2023-02-17T23:38:44.311Z,8.25
2023-02-17T23:43:49.852Z,8.19
2023-02-17T23:48:55.232Z,8.12
2023-02-17T23:54:00.730Z,8.11
2023-02-17T23:59:06.656Z,8.10
